createdAt,value
2022-09-26T00:01:26.995Z,83.05
2022-09-26T00:03:59.858Z,82.58
2022-09-26T00:06:26.899Z,83.00
2022-09-26T00:08:54.098Z,83.46
2022-09-26T00:11:26.991Z,83.10
2022-09-26T00:13:56.731Z,83.38
2022-09-26T00:16:23.306Z,83.52
2022-09-26T00:18:51.782Z,83.87
2022-09-26T00:21:19.163Z,84.54
2022-09-26T00:23:47.562Z,83.90
2022-09-26T00:26:16.110Z,84.60
2022-09-26T00:28:42.699Z,84.92
2022-09-26T00:31:12.889Z,85.00
2022-09-26T00:33:39.481Z,84.47
2022-09-26T00:36:06.676Z,85.76
2022-09-26T00:38:33.496Z,85.32
2022-09-26T00:41:00.048Z,85.43
2022-09-26T00:43:33.690Z,85.55
2022-09-26T00:46:06.467Z,84.79
2022-09-26T00:48:35.812Z,84.95
2022-09-26T00:51:03.144Z,84.66
2022-09-26T00:53:35.563Z,84.82
2022-09-26T00:56:09.371Z,85.42
2022-09-26T00:58:40.956Z,85.51
2022-09-26T01:01:07.951Z,84.65
2022-09-26T01:03:36.150Z,84.43
2022-09-26T01:06:02.736Z,83.57
2022-09-26T01:08:34.854Z,83.88
2022-09-26T01:11:02.404Z,81.99
2022-09-26T01:13:32.982Z,81.67
2022-09-26T01:15:59.371Z,81.97
2022-09-26T01:18:26.605Z,82.12
2022-09-26T01:21:11.871Z,80.79
2022-09-26T01:24:16.605Z,80.84
2022-09-26T01:26:58.183Z,80.07
2022-09-26T01:30:05.383Z,79.14
2022-09-26T01:32:57.123Z,78.92
2022-09-26T01:35:26.896Z,79.75
2022-09-26T01:38:21.432Z,79.80
2022-09-26T01:41:08.054Z,80.59
2022-09-26T01:43:41.542Z,80.82
2022-09-26T01:46:29.206Z,80.52
2022-09-26T01:49:05.563Z,80.39
2022-09-26T01:51:48.848Z,80.23
2022-09-26T01:54:23.318Z,79.96
2022-09-26T01:56:53.093Z,79.89
2022-09-26T01:59:30.328Z,80.86
2022-09-26T02:02:06.807Z,80.86
2022-09-26T02:04:38.626Z,80.24
2022-09-26T02:07:16.669Z,80.76
2022-09-26T02:09:52.159Z,79.94
2022-09-26T02:12:26.125Z,80.21
2022-09-26T02:14:56.152Z,80.77
2022-09-26T02:17:28.333Z,81.41
2022-09-26T02:19:56.304Z,80.30
2022-09-26T02:22:28.950Z,80.18
2022-09-26T02:24:55.388Z,79.58
2022-09-26T02:27:22.053Z,79.16
2022-09-26T02:29:48.476Z,80.10
2022-09-26T02:32:26.983Z,79.26
2022-09-26T02:34:55.531Z,79.82
2022-09-26T02:37:24.142Z,79.01
2022-09-26T02:39:52.588Z,80.01
2022-09-26T02:42:36.472Z,79.60
2022-09-26T02:45:41.714Z,78.53
2022-09-26T02:48:23.591Z,77.92
2022-09-26T02:51:01.810Z,77.94
2022-09-26T02:53:37.737Z,78.73
2022-09-26T02:56:11.286Z,76.87
2022-09-26T02:58:53.757Z,78.56
2022-09-26T03:01:53.922Z,77.31
2022-09-26T03:04:24.127Z,79.15
2022-09-26T03:06:55.785Z,78.79
2022-09-26T03:09:24.919Z,80.18
2022-09-26T03:11:53.573Z,79.74
2022-09-26T03:14:21.109Z,81.05
2022-09-26T03:16:49.418Z,80.00
2022-09-26T03:19:23.614Z,79.96
2022-09-26T03:21:50.668Z,79.60
2022-09-26T03:24:17.387Z,80.09
2022-09-26T03:26:45.242Z,80.05
2022-09-26T03:29:11.692Z,79.02
2022-09-26T03:31:38.375Z,79.78
2022-09-26T03:34:06.360Z,80.68
2022-09-26T03:36:32.883Z,80.66
2022-09-26T03:39:01.779Z,80.35
2022-09-26T03:41:57.525Z,80.33
2022-09-26T03:44:29.501Z,79.57
2022-09-26T03:47:02.304Z,79.11
2022-09-26T03:49:29.074Z,78.99
2022-09-26T03:51:55.530Z,79.36
2022-09-26T03:54:21.953Z,79.64
2022-09-26T03:56:48.784Z,78.60
2022-09-26T03:59:16.759Z,80.97
2022-09-26T04:01:44.941Z,80.27
2022-09-26T04:04:15.123Z,81.23
2022-09-26T04:06:44.711Z,80.28
2022-09-26T04:09:16.605Z,79.73
2022-09-26T04:11:46.604Z,78.74
2022-09-26T04:14:13.140Z,79.70
2022-09-26T04:16:40.528Z,80.21
2022-09-26T04:19:15.365Z,79.70
2022-09-26T04:21:42.288Z,80.04
2022-09-26T04:24:14.452Z,80.57
2022-09-26T04:26:42.063Z,80.64
2022-09-26T04:29:09.021Z,80.26
2022-09-26T04:31:51.879Z,79.71
2022-09-26T04:34:27.269Z,80.04
2022-09-26T04:36:54.402Z,80.05
2022-09-26T04:39:20.987Z,79.84
2022-09-26T04:41:47.988Z,79.44
2022-09-26T04:44:15.135Z,79.51
2022-09-26T04:46:41.899Z,79.74
2022-09-26T04:49:09.401Z,79.89
2022-09-26T04:51:36.975Z,79.67
2022-09-26T04:54:04.313Z,79.73
2022-09-26T04:56:36.277Z,80.59
2022-09-26T04:59:05.334Z,81.24
2022-09-26T05:01:41.648Z,81.01
2022-09-26T05:04:13.649Z,80.87
2022-09-26T05:06:41.404Z,81.43
2022-09-26T05:09:14.238Z,81.60
2022-09-26T05:11:47.595Z,80.27
2022-09-26T05:14:14.565Z,81.82
2022-09-26T05:16:41.345Z,81.38
2022-09-26T05:19:12.008Z,81.63
2022-09-26T05:21:46.394Z,80.93
2022-09-26T05:24:31.498Z,80.88
2022-09-26T05:26:59.667Z,81.31
2022-09-26T05:29:26.221Z,81.02
2022-09-26T05:32:01.288Z,81.54
2022-09-26T05:34:31.928Z,81.66
2022-09-26T05:36:59.299Z,81.82
2022-09-26T05:39:44.424Z,81.53
2022-09-26T05:42:12.463Z,81.04
2022-09-26T05:44:39.608Z,80.95
2022-09-26T05:47:07.217Z,81.34
2022-09-26T05:49:36.069Z,79.20
2022-09-26T05:52:03.910Z,77.87
2022-09-26T05:54:31.047Z,77.21
2022-09-26T05:56:58.653Z,77.50
2022-09-26T05:59:46.670Z,78.19
2022-09-26T06:02:33.445Z,78.16
2022-09-26T06:05:12.679Z,77.80
2022-09-26T06:07:59.557Z,78.02
2022-09-26T06:10:51.993Z,78.94
2022-09-26T06:13:21.806Z,79.00
2022-09-26T06:15:49.902Z,78.83
2022-09-26T06:18:16.468Z,78.98
2022-09-26T06:20:43.127Z,78.90
2022-09-26T06:23:10.818Z,79.85
2022-09-26T06:25:38.326Z,78.45
2022-09-26T06:28:06.025Z,76.64
2022-09-26T06:30:35.397Z,74.16
2022-09-26T06:33:11.531Z,71.92
2022-09-26T06:36:03.641Z,69.58
2022-09-26T06:38:34.400Z,68.30
2022-09-26T06:41:02.090Z,67.75
2022-09-26T06:43:29.338Z,67.39
2022-09-26T06:46:20.470Z,66.83
2022-09-26T06:48:57.761Z,65.61
2022-09-26T06:51:41.850Z,65.08
2022-09-26T06:54:09.800Z,64.59
2022-09-26T06:56:36.157Z,63.57
2022-09-26T06:59:03.826Z,63.24
2022-09-26T07:01:33.284Z,63.14
2022-09-26T07:04:09.537Z,62.41
2022-09-26T07:06:45.774Z,62.43
2022-09-26T07:09:12.981Z,60.99
2022-09-26T07:12:13.988Z,60.80
2022-09-26T07:14:37.819Z,60.32
2022-09-26T07:17:18.062Z,60.40
2022-09-26T07:19:57.244Z,59.80
2022-09-26T07:22:46.277Z,59.31
2022-09-26T07:25:13.947Z,59.51
2022-09-26T07:27:40.827Z,58.22
2022-09-26T07:30:09.066Z,58.09
2022-09-26T07:32:47.800Z,57.98
2022-09-26T07:35:34.146Z,57.17
2022-09-26T07:38:01.114Z,57.75
2022-09-26T07:40:28.503Z,57.15
2022-09-26T07:43:18.525Z,56.97
2022-09-26T07:46:05.481Z,58.02
2022-09-26T07:48:50.680Z,58.77
2022-09-26T07:51:36.910Z,59.66
2022-09-26T07:54:06.250Z,61.22
2022-09-26T07:57:10.822Z,62.13
2022-09-26T07:59:57.586Z,62.40
2022-09-26T08:02:45.166Z,63.26
2022-09-26T08:05:20.350Z,63.81
2022-09-26T08:07:48.730Z,64.67
2022-09-26T08:10:35.040Z,64.76
2022-09-26T08:13:20.737Z,65.48
2022-09-26T08:16:06.229Z,66.35
2022-09-26T08:18:37.861Z,65.47
2022-09-26T08:21:05.683Z,66.20
2022-09-26T08:23:33.362Z,66.00
2022-09-26T08:26:23.819Z,65.23
2022-09-26T08:28:59.888Z,65.00
2022-09-26T08:31:26.679Z,65.31
2022-09-26T08:33:56.669Z,67.29
2022-09-26T08:36:23.153Z,66.21
2022-09-26T08:39:13.803Z,66.10
2022-09-26T08:42:40.686Z,65.21
2022-09-26T08:46:11.916Z,66.45
2022-09-26T08:49:21.471Z,66.31
2022-09-26T08:51:51.901Z,64.07
2022-09-26T08:54:33.193Z,63.54
2022-09-26T08:57:05.854Z,63.13
2022-09-26T08:59:42.006Z,63.27
2022-09-26T09:02:39.397Z,63.15
2022-09-26T09:05:19.749Z,63.30
2022-09-26T09:07:50.177Z,63.18
2022-09-26T09:10:21.607Z,62.28
2022-09-26T09:13:05.966Z,62.43
2022-09-26T09:16:18.381Z,63.03
2022-09-26T09:19:36.262Z,62.70
2022-09-26T09:22:40.560Z,63.53
2022-09-26T09:25:28.045Z,63.32
2022-09-26T09:28:19.925Z,62.19
2022-09-26T09:31:06.347Z,61.60
2022-09-26T09:34:00.335Z,59.49
2022-09-26T09:36:50.258Z,59.39
2022-09-26T09:39:33.905Z,58.80
2022-09-26T09:42:12.046Z,58.17
2022-09-26T09:44:47.263Z,58.35
2022-09-26T09:47:16.547Z,59.36
2022-09-26T09:49:44.670Z,58.91
2022-09-26T09:52:26.371Z,58.95
2022-09-26T09:55:19.708Z,58.48
2022-09-26T09:57:54.054Z,58.94
2022-09-26T10:00:22.555Z,58.96
2022-09-26T10:03:26.558Z,59.36
2022-09-26T10:06:00.613Z,58.31
2022-09-26T10:08:42.206Z,59.41
2022-09-26T10:11:34.307Z,58.68
2022-09-26T10:14:29.488Z,59.10
2022-09-26T10:17:11.466Z,59.51
2022-09-26T10:19:45.058Z,59.96
2022-09-26T10:22:19.059Z,60.17
2022-09-26T10:24:47.753Z,60.30
2022-09-26T10:27:37.813Z,60.41
2022-09-26T10:30:19.861Z,60.60
2022-09-26T10:32:56.399Z,60.44
2022-09-26T10:35:44.296Z,60.29
2022-09-26T10:38:27.813Z,60.28
2022-09-26T10:41:03.349Z,59.79
2022-09-26T10:43:35.563Z,59.56
2022-09-26T10:46:20.759Z,59.56
2022-09-26T10:49:12.954Z,59.73
2022-09-26T10:52:19.666Z,59.60
2022-09-26T10:55:04.140Z,58.75
2022-09-26T10:57:51.774Z,58.59
2022-09-26T11:00:42.614Z,59.12
2022-09-26T11:03:43.180Z,59.04
2022-09-26T11:06:29.225Z,59.28
2022-09-26T11:09:05.060Z,59.22
2022-09-26T11:11:51.110Z,59.55
2022-09-26T11:14:30.337Z,59.27
2022-09-26T11:17:08.810Z,57.52
2022-09-26T11:19:45.697Z,58.53
2022-09-26T11:22:45.238Z,58.26
2022-09-26T11:25:24.048Z,58.28
2022-09-26T11:28:08.556Z,58.09
2022-09-26T11:31:24.856Z,57.21
2022-09-26T11:34:16.967Z,57.45
2022-09-26T11:37:17.906Z,57.40
2022-09-26T11:39:58.574Z,57.98
2022-09-26T11:42:43.998Z,59.20
2022-09-26T11:45:27.237Z,59.07
2022-09-26T11:48:21.368Z,60.52
2022-09-26T11:51:24.506Z,60.85
2022-09-26T11:54:00.827Z,61.26
2022-09-26T11:56:39.557Z,60.69
2022-09-26T11:59:24.115Z,60.63
2022-09-26T12:02:18.386Z,61.66
2022-09-26T12:05:03.772Z,61.01
2022-09-26T12:08:15.158Z,59.91
2022-09-26T12:10:50.519Z,60.32
2022-09-26T12:13:48.252Z,61.27
2022-09-26T12:16:52.916Z,61.93
2022-09-26T12:19:40.043Z,63.22
2022-09-26T12:22:29.034Z,63.50
2022-09-26T12:25:22.759Z,64.58
2022-09-26T12:28:16.764Z,64.45
2022-09-26T12:31:09.741Z,65.25
2022-09-26T12:33:51.024Z,64.96
2022-09-26T12:36:31.207Z,64.79
2022-09-26T12:39:28.845Z,66.11
2022-09-26T12:41:55.174Z,65.49
2022-09-26T12:44:37.526Z,65.76
2022-09-26T12:47:22.039Z,65.15
2022-09-26T12:50:00.613Z,64.34
2022-09-26T12:52:32.937Z,65.23
2022-09-26T12:55:29.654Z,64.99
2022-09-26T12:58:24.935Z,64.63
2022-09-26T13:01:05.024Z,64.21
2022-09-26T13:03:58.827Z,63.09
2022-09-26T13:06:49.026Z,63.15
2022-09-26T13:09:57.168Z,63.20
2022-09-26T13:13:02.595Z,63.07
2022-09-26T13:15:35.620Z,63.27
2022-09-26T13:18:37.489Z,63.63
2022-09-26T13:21:12.582Z,63.60
2022-09-26T13:23:48.582Z,63.85
2022-09-26T13:26:19.575Z,64.40
2022-09-26T13:29:17.172Z,65.22
2022-09-26T13:31:55.328Z,67.03
2022-09-26T13:34:28.120Z,66.71
2022-09-26T13:36:57.411Z,67.92
2022-09-26T13:39:26.962Z,67.50
2022-09-26T13:42:02.824Z,66.89
2022-09-26T13:44:57.378Z,66.50
2022-09-26T13:47:33.366Z,67.08
2022-09-26T13:50:22.235Z,66.67
2022-09-26T13:53:10.941Z,66.24
2022-09-26T13:55:37.391Z,66.79
2022-09-26T13:58:21.091Z,66.76
2022-09-26T14:00:54.850Z,66.50
2022-09-26T14:03:23.088Z,66.95
2022-09-26T14:05:51.504Z,66.05
2022-09-26T14:08:43.005Z,66.26
2022-09-26T14:11:19.810Z,66.29
2022-09-26T14:13:47.641Z,66.23
2022-09-26T14:16:34.873Z,65.91
2022-09-26T14:19:10.938Z,66.39
2022-09-26T14:22:00.542Z,66.06
2022-09-26T14:24:37.859Z,66.32
2022-09-26T14:27:10.192Z,66.06
2022-09-26T14:29:39.416Z,66.79
2022-09-26T14:32:10.184Z,66.60
2022-09-26T14:34:55.298Z,65.78
2022-09-26T14:37:24.668Z,66.19
2022-09-26T14:40:00.527Z,66.37
2022-09-26T14:42:36.336Z,66.36
2022-09-26T14:45:06.468Z,66.57
2022-09-26T14:47:52.761Z,66.89
2022-09-26T14:50:25.473Z,67.03
2022-09-26T14:53:01.968Z,66.70
2022-09-26T14:55:31.292Z,67.26
2022-09-26T14:58:46.349Z,68.01
2022-09-26T15:01:17.934Z,67.48
2022-09-26T15:03:54.736Z,67.69
2022-09-26T15:06:22.687Z,67.64
2022-09-26T15:08:49.547Z,67.95
2022-09-26T15:11:45.032Z,68.04
2022-09-26T15:14:21.784Z,68.08
2022-09-26T15:16:53.211Z,69.25
2022-09-26T15:19:42.689Z,69.35
2022-09-26T15:22:16.286Z,69.45
2022-09-26T15:24:42.887Z,69.56
2022-09-26T15:27:19.286Z,69.40
2022-09-26T15:29:51.537Z,70.33
2022-09-26T15:32:29.552Z,69.83
2022-09-26T15:34:57.326Z,70.14
2022-09-26T15:37:32.592Z,70.55
2022-09-26T15:40:19.483Z,70.83
2022-09-26T15:42:58.949Z,70.85
2022-09-26T15:45:33.225Z,71.25
2022-09-26T15:48:05.330Z,71.12
2022-09-26T15:50:39.615Z,70.94
2022-09-26T15:53:27.530Z,70.99
2022-09-26T15:56:05.969Z,71.31
2022-09-26T15:58:40.200Z,70.86
2022-09-26T16:01:08.392Z,71.49
2022-09-26T16:03:55.254Z,71.15
2022-09-26T16:06:29.907Z,71.79
2022-09-26T16:09:19.485Z,72.13
2022-09-26T16:11:50.123Z,72.46
2022-09-26T16:14:25.556Z,72.42
2022-09-26T16:17:01.098Z,72.13
2022-09-26T16:19:35.590Z,72.37
2022-09-26T16:22:39.139Z,72.13
2022-09-26T16:25:25.798Z,72.82
2022-09-26T16:28:00.743Z,72.71
2022-09-26T16:30:27.125Z,73.01
2022-09-26T16:33:16.263Z,73.16
2022-09-26T16:35:47.736Z,72.95
2022-09-26T16:38:27.950Z,73.50
2022-09-26T16:40:56.765Z,73.42
2022-09-26T16:43:29.328Z,73.89
2022-09-26T16:46:13.369Z,73.78
2022-09-26T16:48:51.844Z,74.19
2022-09-26T16:51:21.257Z,74.21
2022-09-26T16:54:07.958Z,73.99
2022-09-26T16:56:38.834Z,74.62
2022-09-26T16:59:14.061Z,74.96
2022-09-26T17:01:55.665Z,75.57
2022-09-26T17:04:28.855Z,75.50
2022-09-26T17:06:55.353Z,75.48
2022-09-26T17:09:27.948Z,75.31
2022-09-26T17:11:57.015Z,75.34
2022-09-26T17:14:28.500Z,74.74
2022-09-26T17:16:57.333Z,75.02
2022-09-26T17:19:27.017Z,74.18
2022-09-26T17:21:54.851Z,74.13
2022-09-26T17:24:24.025Z,74.55
2022-09-26T17:26:59.406Z,74.06
2022-09-26T17:29:30.322Z,73.25
2022-09-26T17:31:57.975Z,72.43
2022-09-26T17:34:27.991Z,71.98
2022-09-26T17:36:58.107Z,70.53
2022-09-26T17:39:27.500Z,71.40
2022-09-26T17:41:57.138Z,70.50
2022-09-26T17:44:23.632Z,71.55
2022-09-26T17:46:53.882Z,72.52
2022-09-26T17:49:27.466Z,72.45
2022-09-26T17:51:57.074Z,72.22
2022-09-26T17:54:30.151Z,73.23
2022-09-26T17:56:56.963Z,73.91
2022-09-26T17:59:25.633Z,74.58
2022-09-26T18:01:56.435Z,74.62
2022-09-26T18:04:26.877Z,72.20
2022-09-26T18:06:55.986Z,72.34
2022-09-26T18:09:23.292Z,72.63
2022-09-26T18:12:00.543Z,72.93
2022-09-26T18:14:31.152Z,72.62
2022-09-26T18:16:58.796Z,73.30
2022-09-26T18:19:25.369Z,73.74
2022-09-26T18:21:55.566Z,73.55
2022-09-26T18:24:26.551Z,73.80
2022-09-26T18:26:56.925Z,75.28
2022-09-26T18:29:31.956Z,75.17
2022-09-26T18:31:59.586Z,75.68
2022-09-26T18:34:25.947Z,76.15
2022-09-26T18:36:56.797Z,76.85
2022-09-26T18:39:25.010Z,76.78
2022-09-26T18:41:58.814Z,76.05
2022-09-26T18:44:26.156Z,77.07
2022-09-26T18:46:58.234Z,77.05
2022-09-26T18:49:30.179Z,76.58
2022-09-26T18:51:56.877Z,76.45
2022-09-26T18:54:24.613Z,76.75
2022-09-26T18:57:09.835Z,77.16
2022-09-26T18:59:36.272Z,77.81
2022-09-26T19:02:04.805Z,77.83
2022-09-26T19:04:31.622Z,78.10
2022-09-26T19:07:04.729Z,78.72
2022-09-26T19:09:33.749Z,79.04
2022-09-26T19:12:01.306Z,80.12
2022-09-26T19:14:29.803Z,80.21
2022-09-26T19:16:56.917Z,80.46
2022-09-26T19:19:24.417Z,80.23
2022-09-26T19:21:58.129Z,81.00
2022-09-26T19:24:39.886Z,80.97
2022-09-26T19:27:26.978Z,81.90
2022-09-26T19:30:04.784Z,81.83
2022-09-26T19:32:37.675Z,81.78
2022-09-26T19:35:32.047Z,81.35
2022-09-26T19:37:59.766Z,81.49
2022-09-26T19:40:27.335Z,81.84
2022-09-26T19:42:55.032Z,81.82
2022-09-26T19:45:22.117Z,81.24
2022-09-26T19:47:53.273Z,81.47
2022-09-26T19:50:25.762Z,81.48
2022-09-26T19:52:54.976Z,81.88
2022-09-26T19:55:24.338Z,82.08
2022-09-26T19:57:52.705Z,82.12
2022-09-26T20:00:20.037Z,82.74
2022-09-26T20:02:50.048Z,82.40
2022-09-26T20:05:25.286Z,83.07
2022-09-26T20:07:52.507Z,83.31
2022-09-26T20:10:24.969Z,83.07
2022-09-26T20:12:51.816Z,82.46
2022-09-26T20:15:22.591Z,82.89
2022-09-26T20:17:49.592Z,83.19
2022-09-26T20:20:22.797Z,83.40
2022-09-26T20:22:51.584Z,83.56
2022-09-26T20:25:30.003Z,83.60
2022-09-26T20:27:57.791Z,84.18
2022-09-26T20:30:43.629Z,83.89
2022-09-26T20:33:12.887Z,84.47
2022-09-26T20:35:43.092Z,83.75
2022-09-26T20:38:31.955Z,83.02
2022-09-26T20:41:12.088Z,83.94
2022-09-26T20:43:39.603Z,83.59
2022-09-26T20:46:09.451Z,84.32
2022-09-26T20:48:37.043Z,83.69
2022-09-26T20:51:12.401Z,83.59
2022-09-26T20:53:38.799Z,83.46
2022-09-26T20:56:16.784Z,83.59
2022-09-26T20:58:44.215Z,83.43
2022-09-26T21:01:15.424Z,82.75
2022-09-26T21:03:49.144Z,83.04
2022-09-26T21:06:21.157Z,83.32
2022-09-26T21:08:48.475Z,84.22
2022-09-26T21:11:21.754Z,84.75
2022-09-26T21:13:48.766Z,84.29
2022-09-26T21:16:18.229Z,84.00
2022-09-26T21:18:47.263Z,83.85
2022-09-26T21:21:17.850Z,84.60
2022-09-26T21:23:53.652Z,84.02
2022-09-26T21:26:22.276Z,84.10
2022-09-26T21:28:50.091Z,85.19
2022-09-26T21:31:29.545Z,85.50
2022-09-26T21:33:58.278Z,85.32
2022-09-26T21:36:32.683Z,85.02
2022-09-26T21:39:01.654Z,85.08
2022-09-26T21:41:29.279Z,85.39
2022-09-26T21:44:00.407Z,85.16
2022-09-26T21:46:27.586Z,84.82
2022-09-26T21:48:55.256Z,85.31
2022-09-26T21:51:25.359Z,85.56
2022-09-26T21:53:57.539Z,85.33
2022-09-26T21:56:29.175Z,85.51
2022-09-26T21:58:56.764Z,85.84
2022-09-26T22:01:23.930Z,86.02
2022-09-26T22:03:50.351Z,85.91
2022-09-26T22:06:16.765Z,86.18
2022-09-26T22:08:43.283Z,86.39
2022-09-26T22:11:09.869Z,86.20
2022-09-26T22:13:37.278Z,86.10
2022-09-26T22:16:12.872Z,86.48
2022-09-26T22:18:40.265Z,87.47
2022-09-26T22:21:09.098Z,87.65
2022-09-26T22:23:36.359Z,87.47
2022-09-26T22:26:03.407Z,87.06
2022-09-26T22:28:30.519Z,86.39
2022-09-26T22:31:01.769Z,86.34
2022-09-26T22:33:28.311Z,86.32
2022-09-26T22:35:54.686Z,85.93
2022-09-26T22:38:21.277Z,86.29
2022-09-26T22:41:03.061Z,85.87
2022-09-26T22:43:30.815Z,86.17
2022-09-26T22:46:01.297Z,85.65
2022-09-26T22:48:32.260Z,85.94
2022-09-26T22:50:58.798Z,86.56
2022-09-26T22:53:25.385Z,86.09
2022-09-26T22:55:54.671Z,85.68
2022-09-26T22:58:25.910Z,86.02
2022-09-26T23:00:52.385Z,85.65
2022-09-26T23:03:18.946Z,85.71
2022-09-26T23:05:50.135Z,85.19
2022-09-26T23:08:16.593Z,85.77
2022-09-26T23:10:50.317Z,85.88
2022-09-26T23:13:17.905Z,86.09
2022-09-26T23:15:45.145Z,86.49
2022-09-26T23:18:12.395Z,86.70
2022-09-26T23:20:43.322Z,86.61
2022-09-26T23:23:11.850Z,86.51
2022-09-26T23:25:46.115Z,86.50
2022-09-26T23:28:12.621Z,86.00
2022-09-26T23:30:39.382Z,85.86
2022-09-26T23:33:05.819Z,85.57
2022-09-26T23:35:32.193Z,85.50
2022-09-26T23:37:58.818Z,85.83
2022-09-26T23:40:25.374Z,85.67
2022-09-26T23:42:51.810Z,85.50
2022-09-26T23:45:18.267Z,85.42
2022-09-26T23:47:44.648Z,85.38
2022-09-26T23:50:11.103Z,85.40
2022-09-26T23:52:37.542Z,85.73
2022-09-26T23:55:04.339Z,85.63
2022-09-26T23:57:30.804Z,85.61
2022-09-26T23:59:57.220Z,85.05
